Time;durP1;ratioP1;P1;durP2;ratioP2;P2;SDS_P1;SDS_P2;PMS_P1;PMS_P2;Temp;Humidity;BMP_temperature;BMP_pressure;BME280_temperature;BME280_humidity;BME280_pressure;Samples;Min_cycle;Max_cycle;Signal;HPM_P1;HPM_P2
2023/04/04 00:01:36;;;;;;;5.18;3.80;;;;;;;0.30;100.00;103138.00;10223725;28;20050;-69
2023/04/04 00:06:35;;;;;;;6.85;3.80;;;;;;;0.25;100.00;103128.81;10216170;28;20059;-69
2023/04/04 00:11:32;;;;;;;6.13;3.92;;;;;;;0.14;100.00;103127.41;10226558;28;20538;-69
2023/04/04 00:16:40;;;;;;;6.65;4.20;;;;;;;0.05;100.00;103124.03;10228258;28;20569;-69
2023/04/04 00:22:00;;;;;;;12.50;4.72;;;;;;;0.10;100.00;103116.22;10215297;28;20052;-69
2023/04/04 00:27:06;;;;;;;4.90;3.90;;;;;;;0.03;100.00;103115.31;10225140;28;20045;-69
2023/04/04 00:32:10;;;;;;;7.03;3.58;;;;;;;0.00;100.00;103110.31;10228532;28;20057;-68
2023/04/04 00:37:11;;;;;;;5.20;4.10;;;;;;;-0.03;100.00;103108.81;10221994;28;20486;-69
2023/04/04 00:42:13;;;;;;;7.18;3.70;;;;;;;0.05;100.00;103101.66;10223840;28;20436;-69
2023/04/04 00:47:20;;;;;;;7.38;4.13;;;;;;;0.03;100.00;103104.56;10217694;28;20052;-69
2023/04/04 00:52:18;;;;;;;9.35;4.15;;;;;;;-0.17;100.00;103098.09;10222951;28;20096;-69
2023/04/04 00:57:18;;;;;;;7.03;4.45;;;;;;;-0.05;100.00;103097.44;10225308;28;20501;-69
2023/04/04 01:02:17;;;;;;;10.77;3.63;;;;;;;-0.16;100.00;103089.84;10228034;28;20045;-69
2023/04/04 01:07:22;;;;;;;7.78;3.55;;;;;;;-0.13;100.00;103088.63;10223439;28;20049;-69
2023/04/04 01:12:22;;;;;;;5.55;3.72;;;;;;;-0.20;100.00;103087.72;10228902;28;20048;-69
2023/04/04 01:17:20;;;;;;;6.90;3.75;;;;;;;-0.22;100.00;103086.03;10236109;28;20052;-70
2023/04/04 01:22:26;;;;;;;7.47;4.07;;;;;;;-0.22;100.00;103086.03;10225505;28;20144;-70
2023/04/04 01:27:28;;;;;;;8.02;4.13;;;;;;;-0.26;100.00;103079.34;10226102;28;20085;-70
2023/04/04 01:32:53;;;;;;;7.22;4.07;;;;;;;-0.26;100.00;103073.97;10216305;28;20053;-69
2023/04/04 01:38:52;;;;;;;9.27;4.22;;;;;;;-0.28;100.00;103065.28;10230448;28;20104;-69
2023/04/04 01:43:57;;;;;;;4.78;3.72;;;;;;;-0.30;100.00;103051.19;10171313;28;20046;-69
2023/04/04 01:48:57;;;;;;;8.23;4.30;;;;;;;-0.27;100.00;103056.19;10219202;28;20419;-69
2023/04/04 01:53:54;;;;;;;6.72;3.58;;;;;;;-0.29;100.00;103058.22;10227339;28;20781;-69
2023/04/04 01:58:58;;;;;;;5.30;4.17;;;;;;;-0.34;100.00;103044.53;10224449;28;20037;-69
2023/04/04 02:03:55;;;;;;;6.88;3.72;;;;;;;-0.32;100.00;103042.50;10225184;28;20175;-69
2023/04/04 02:08:55;;;;;;;7.55;4.35;;;;;;;-0.31;100.00;103044.13;10222830;28;20099;-70
2023/04/04 02:13:54;;;;;;;9.45;4.80;;;;;;;-0.34;100.00;103039.16;10220672;28;20057;-70
2023/04/04 02:18:51;;;;;;;7.05;4.05;;;;;;;-0.25;100.00;103037.19;10228737;28;20140;-68
2023/04/04 02:23:54;;;;;;;5.93;3.90;;;;;;;-0.33;100.00;103043.50;10220277;28;20096;-68
2023/04/04 02:28:59;;;;;;;6.70;4.03;;;;;;;-0.35;100.00;103036.63;10229684;28;20045;-70
2023/04/04 02:34:04;;;;;;;7.07;3.80;;;;;;;-0.35;100.00;103026.72;10213832;28;20073;-70
2023/04/04 02:39:03;;;;;;;7.15;3.65;;;;;;;-0.41;100.00;103035.56;10224962;28;20069;-70
2023/04/04 02:44:08;;;;;;;7.00;4.07;;;;;;;-0.44;100.00;103033.25;10235549;28;20624;-70
2023/04/04 02:49:11;;;;;;;5.70;3.70;;;;;;;-0.40;100.00;103031.81;10220576;28;20052;-68
2023/04/04 02:54:12;;;;;;;7.15;4.30;;;;;;;-0.40;100.00;103034.50;10226689;28;20041;-67
2023/04/04 02:59:13;;;;;;;7.68;4.18;;;;;;;-0.42;100.00;103031.19;10224412;28;20038;-68
2023/04/04 03:04:18;;;;;;;7.10;4.30;;;;;;;-0.44;100.00;103030.56;10218801;28;20054;-68
2023/04/04 03:09:22;;;;;;;6.50;4.35;;;;;;;-0.49;100.00;103038.31;10228779;28;20046;-68
2023/04/04 03:14:28;;;;;;;6.65;4.53;;;;;;;-0.44;100.00;103039.44;10225820;28;20049;-68
2023/04/04 03:19:33;;;;;;;7.43;4.60;;;;;;;-0.48;100.00;103042.69;10218740;28;20102;-68
2023/04/04 03:24:30;;;;;;;6.78;4.53;;;;;;;-0.48;100.00;103032.78;10215873;28;20149;-68
2023/04/04 03:29:31;;;;;;;6.65;4.80;;;;;;;-0.45;100.00;103028.88;10225544;28;20042;-68
2023/04/04 03:34:30;;;;;;;5.13;4.03;;;;;;;-0.50;100.00;103026.75;10207249;28;20050;-69
2023/04/04 03:39:33;;;;;;;5.88;5.03;;;;;;;-0.49;100.00;103035.63;10221662;28;20038;-68
2023/04/04 03:44:38;;;;;;;6.88;5.05;;;;;;;-0.49;100.00;103024.88;10216321;28;20077;-69
2023/04/04 03:49:38;;;;;;;;;;;;;;;-0.47;100.00;103029.06;10207807;28;20045;-68
2023/04/04 03:54:46;;;;;;;5.72;4.20;;;;;;;-0.47;100.00;103025.53;10215049;28;19941;-69
2023/04/04 03:59:46;;;;;;;9.52;5.60;;;;;;;-0.48;100.00;103022.03;10205724;28;20496;-67
2023/04/04 04:04:49;;;;;;;7.68;5.00;;;;;;;-0.44;100.00;103006.38;10216066;28;20049;-67
2023/04/04 04:09:49;;;;;;;11.35;5.40;;;;;;;-0.43;100.00;103008.03;10207213;28;20042;-67
2023/04/04 04:14:49;;;;;;;7.80;5.15;;;;;;;-0.40;100.00;103012.19;10223230;28;20049;-66
2023/04/04 04:20:17;;;;;;;9.20;5.72;;;;;;;-0.36;100.00;103014.31;10209690;28;20069;-66
2023/04/04 04:25:20;;;;;;;8.43;5.35;;;;;;;-0.44;100.00;103009.88;10209627;28;20065;-69
2023/04/04 04:30:32;;;;;;;7.90;5.40;;;;;;;-0.45;100.00;103015.44;10220356;28;20042;-67
2023/04/04 04:35:38;;;;;;;6.93;5.93;;;;;;;-0.44;100.00;103022.50;10217110;28;20392;-67
2023/04/04 04:40:40;;;;;;;9.88;5.85;;;;;;;-0.43;100.00;103013.41;10225023;28;20046;-67
2023/04/04 04:45:37;;;;;;;7.50;6.35;;;;;;;-0.46;100.00;103008.41;10225766;28;20047;-66
2023/04/04 04:50:40;;;;;;;7.15;6.30;;;;;;;-0.61;100.00;103010.28;10217505;28;20045;-67
2023/04/04 04:55:41;;;;;;;8.50;5.68;;;;;;;-0.61;100.00;103019.16;10207360;28;20404;-68
2023/04/04 05:00:48;;;;;;;11.90;5.80;;;;;;;-0.56;100.00;103018.59;10213184;28;20708;-67
2023/04/04 05:05:48;;;;;;;9.77;6.63;;;;;;;-0.57;100.00;103014.25;10219665;28;20041;-67
2023/04/04 05:10:53;;;;;;;9.00;6.30;;;;;;;-0.59;100.00;103018.97;10210479;28;20132;-67
2023/04/04 05:15:51;;;;;;;12.50;6.70;;;;;;;-0.62;100.00;103024.75;10207571;28;20064;-67
2023/04/04 05:21:00;;;;;;;6.78;6.07;;;;;;;-0.59;100.00;103018.97;10203664;28;20046;-67
2023/04/04 05:26:04;;;;;;;13.63;7.18;;;;;;;-0.61;100.00;103021.84;10204259;28;20053;-67
2023/04/04 05:31:03;;;;;;;10.07;7.72;;;;;;;-0.62;100.00;103024.75;10209003;28;20042;-67
2023/04/04 05:36:03;;;;;;;7.93;6.38;;;;;;;-0.57;100.00;103016.94;10204652;28;20168;-67
2023/04/04 05:41:00;;;;;;;10.52;7.45;;;;;;;-0.57;100.00;103022.31;10212426;28;20053;-67
2023/04/04 05:46:01;;;;;;;9.25;6.57;;;;;;;-0.52;100.00;103020.72;10215320;28;20506;-67
2023/04/04 05:51:00;;;;;;;8.13;6.70;;;;;;;-0.52;100.00;103023.41;10215020;28;20065;-67
2023/04/04 05:56:10;;;;;;;11.90;7.32;;;;;;;-0.42;100.00;103025.81;10207622;28;20749;-67
2023/04/04 06:01:18;;;;;;;8.55;7.47;;;;;;;-0.34;100.00;103022.19;10216500;28;20121;-67
2023/04/04 06:06:18;;;;;;;9.93;7.30;;;;;;;-0.23;100.00;103024.41;10216066;28;20049;-67
2023/04/04 06:11:22;;;;;;;8.23;6.63;;;;;;;-0.16;100.00;103019.06;10223705;28;20100;-67
2023/04/04 06:16:24;;;;;;;16.70;7.82;;;;;;;-0.02;100.00;103024.44;10198477;28;20042;-67
2023/04/04 06:21:26;;;;;;;9.23;7.00;;;;;;;0.01;100.00;103023.22;10217615;28;20084;-67
2023/04/04 06:26:28;;;;;;;10.82;7.30;;;;;;;0.00;100.00;103026.94;10214411;28;20136;-67
2023/04/04 06:36:51;;;;;;;9.48;6.95;;;;;;;0.01;100.00;103025.91;10204397;28;19939;-67
2023/04/04 06:41:49;;;;;;;9.05;6.90;;;;;;;0.13;100.00;103024.38;10218808;28;20058;-67
2023/04/04 06:46:50;;;;;;;7.38;6.38;;;;;;;0.13;100.00;103024.38;10211889;28;20165;-67
2023/04/04 06:51:49;;;;;;;7.25;6.55;;;;;;;0.40;100.00;103016.56;10209876;28;20059;-67
2023/04/04 06:56:48;;;;;;;11.75;6.30;;;;;;;0.46;100.00;103021.16;10213188;28;20049;-67
2023/04/04 07:01:47;;;;;;;6.63;6.03;;;;;;;0.45;100.00;103016.81;10201940;28;20083;-67
2023/04/04 07:06:48;;;;;;;7.50;6.30;;;;;;;0.62;100.00;103018.19;10212255;28;20510;-67
2023/04/04 07:11:52;;;;;;;8.57;6.35;;;;;;;0.70;100.00;103016.41;10211635;28;20507;-67
2023/04/04 07:16:53;;;;;;;10.93;5.95;;;;;;;0.87;100.00;103009.69;10204998;28;20118;-67
2023/04/04 07:22:03;;;;;;;8.15;5.95;;;;;;;0.94;100.00;103005.16;10213833;28;20037;-67
2023/04/04 07:27:02;;;;;;;13.80;6.80;;;;;;;1.03;100.00;103009.38;10214133;28;20093;-67
2023/04/04 07:32:09;;;;;;;16.48;6.60;;;;;;;1.25;100.00;103003.91;10218152;28;20470;-67
2023/04/04 07:37:07;;;;;;;10.10;6.10;;;;;;;1.47;100.00;102994.69;10213319;28;20045;-67
2023/04/04 07:42:22;;;;;;;6.32;5.60;;;;;;;1.62;100.00;102991.00;10213569;28;20070;-67
2023/04/04 07:47:31;;;;;;;8.52;5.60;;;;;;;1.75;100.00;102991.06;10219758;28;20052;-67
2023/04/04 07:52:37;;;;;;;6.55;5.50;;;;;;;1.92;100.00;102996.06;10221847;28;20115;-67
2023/04/04 07:57:43;;;;;;;6.88;5.50;;;;;;;2.09;100.00;103002.75;10221848;28;20115;-67
2023/04/04 08:02:44;;;;;;;6.70;5.22;;;;;;;2.22;100.00;102991.97;10214291;28;20507;-68
2023/04/04 08:07:46;;;;;;;6.60;5.00;;;;;;;2.35;100.00;102990.34;10215783;28;20041;-67
2023/04/04 08:12:52;;;;;;;6.15;5.55;;;;;;;2.41;100.00;102984.09;10210291;28;20133;-66
2023/04/04 08:17:49;;;;;;;9.50;5.60;;;;;;;2.56;100.00;102982.03;10206442;28;20579;-67
2023/04/04 08:22:52;;;;;;;8.32;5.63;;;;;;;2.86;100.00;102986.97;10225412;28;20052;-66
2023/04/04 08:27:53;;;;;;;6.05;5.55;;;;;;;3.13;100.00;102980.47;10207290;28;20070;-68
2023/04/04 08:32:53;;;;;;;10.65;5.55;;;;;;;3.38;100.00;102974.34;10210417;28;20073;-67
2023/04/04 08:37:56;;;;;;;6.85;5.40;;;;;;;3.38;100.00;102975.19;10206429;28;20076;-68
2023/04/04 08:43:03;;;;;;;8.43;6.40;;;;;;;3.55;100.00;102978.25;10206015;28;20527;-68
2023/04/04 08:48:04;;;;;;;6.28;5.30;;;;;;;3.79;100.00;102975.84;10208276;28;20077;-68
2023/04/04 08:53:15;;;;;;;7.18;5.53;;;;;;;4.17;100.00;102966.84;10206180;28;20519;-68
2023/04/04 08:58:23;;;;;;;14.23;7.10;;;;;;;4.26;100.00;102975.53;10222154;28;20068;-66
2023/04/04 09:03:27;;;;;;;7.20;5.32;;;;;;;4.40;100.00;102972.47;10215466;28;20487;-68
2023/04/04 09:08:25;;;;;;;9.20;5.88;;;;;;;4.67;100.00;102964.13;10211774;28;20049;-68
2023/04/04 09:13:25;;;;;;;6.43;5.80;;;;;;;5.03;100.00;102959.78;10213486;28;20132;-68
2023/04/04 09:18:29;;;;;;;11.68;6.50;;;;;;;5.03;100.00;102960.63;10202776;28;20042;-68
2023/04/04 09:23:27;;;;;;;6.18;5.20;;;;;;;5.17;100.00;102964.00;10210903;28;20598;-68
2023/04/04 09:28:26;;;;;;;5.60;5.10;;;;;;;5.38;100.00;102957.28;10213056;28;20466;-68
2023/04/04 09:33:26;;;;;;;5.50;5.00;;;;;;;5.53;99.62;102959.63;10213499;28;20079;-67
2023/04/04 09:38:35;;;;;;;6.17;5.57;;;;;;;5.40;90.14;102946.22;10215998;28;20538;-66
2023/04/04 09:43:43;;;;;;;6.03;5.30;;;;;;;5.86;82.35;102936.59;10209554;28;20112;-66
2023/04/04 09:48:49;;;;;;;6.30;5.10;;;;;;;6.01;83.02;102937.03;10208063;28;20099;-66
2023/04/04 09:53:47;;;;;;;6.72;5.47;;;;;;;6.50;91.53;102943.13;10215650;28;20056;-66
2023/04/04 09:58:52;;;;;;;6.10;5.38;;;;;;;6.53;88.35;102939.94;10209668;28;20073;-66
2023/04/04 10:04:03;;;;;;;5.38;4.88;;;;;;;5.96;85.53;102931.47;10207107;28;20042;-67
2023/04/04 10:09:02;;;;;;;6.68;5.20;;;;;;;6.68;78.86;102916.88;10204743;28;20046;-66
2023/04/04 10:14:00;;;;;;;10.07;5.70;;;;;;;7.19;77.28;102917.97;10221825;28;20068;-66
2023/04/04 10:19:08;;;;;;;8.80;5.40;;;;;;;7.69;75.38;102917.28;10208750;28;20432;-66
2023/04/04 10:24:21;;;;;;;5.57;5.07;;;;;;;8.10;67.08;102915.28;10218277;28;20122;-67
2023/04/04 10:29:38;;;;;;;6.70;6.00;;;;;;;7.89;72.14;102910.56;10212269;28;20094;-67
2023/04/04 10:34:51;;;;;;;6.00;5.40;;;;;;;10.29;60.62;102902.66;10217916;28;20065;-67
2023/04/04 10:40:04;;;;;;;6.13;5.63;;;;;;;10.48;48.32;102894.00;10216570;28;20056;-67
2023/04/04 10:45:14;;;;;;;10.77;5.70;;;;;;;11.32;42.74;102889.47;10216258;28;20054;-67
2023/04/04 10:50:19;;;;;;;5.82;5.15;;;;;;;11.84;33.69;102887.66;10197606;28;20137;-67
2023/04/04 10:55:22;;;;;;;5.77;5.27;;;;;;;11.76;35.98;102889.00;10226121;28;20052;-67
2023/04/04 11:00:29;;;;;;;;;;;;;;;10.21;36.03;102894.06;10231339;28;20049;-67
2023/04/04 11:05:46;;;;;;;5.45;5.05;;;;;;;11.13;35.29;102891.88;10213772;28;19928;-67
2023/04/04 11:10:52;;;;;;;6.10;5.50;;;;;;;12.16;36.92;102879.16;10222550;28;20073;-67
2023/04/04 11:16:16;;;;;;;5.55;5.05;;;;;;;10.88;36.64;102881.63;10206384;28;20104;-67
2023/04/04 11:21:26;;;;;;;11.68;5.82;;;;;;;11.97;33.95;102874.25;10220450;28;20129;-67
2023/04/04 11:26:29;;;;;;;9.07;5.07;;;;;;;11.54;35.94;102870.88;10205270;28;20452;-67
2023/04/04 11:31:58;;;;;;;5.82;5.03;;;;;;;11.56;33.43;102857.75;10217984;28;20550;-67
2023/04/04 11:37:17;;;;;;;5.63;5.15;;;;;;;10.46;31.41;102847.78;10222643;28;20069;-66
2023/04/04 11:42:21;;;;;;;5.45;4.95;;;;;;;10.03;32.49;102846.13;10215935;28;20104;-67
2023/04/04 11:47:24;;;;;;;6.32;5.50;;;;;;;9.85;34.87;102845.41;10211758;28;20046;-67
2023/04/04 11:52:31;;;;;;;5.13;4.60;;;;;;;9.53;37.97;102836.41;10211862;28;20037;-67
2023/04/04 11:57:32;;;;;;;6.50;5.60;;;;;;;10.00;39.45;102828.34;10207767;28;20042;-67
2023/04/04 12:02:33;;;;;;;5.70;5.20;;;;;;;11.38;37.62;102822.66;10206340;28;20529;-68
2023/04/04 12:07:36;;;;;;;6.43;5.78;;;;;;;11.24;34.45;102832.50;10206884;28;20073;-67
2023/04/04 12:12:38;;;;;;;;;;;;;;;11.82;32.26;102822.13;10201355;28;20045;-67
2023/04/04 12:17:41;;;;;;;6.30;5.72;;;;;;;10.67;32.90;102824.06;10211074;28;19925;-66
2023/04/04 12:22:40;;;;;;;6.68;5.35;;;;;;;10.56;34.81;102822.41;10211028;28;20042;-67
2023/04/04 12:27:37;;;;;;;6.10;5.47;;;;;;;11.20;36.50;102820.44;10219389;28;20080;-67
2023/04/04 12:32:39;;;;;;;6.07;5.07;;;;;;;13.01;34.58;102816.03;10221282;28;20059;-67
2023/04/04 12:37:59;;;;;;;6.45;5.78;;;;;;;12.73;34.26;102803.00;10194675;28;20057;-67
2023/04/04 12:43:01;;;;;;;5.93;5.43;;;;;;;12.73;32.37;102798.31;10200885;28;20042;-67
2023/04/04 12:48:14;;;;;;;6.45;5.85;;;;;;;13.52;30.73;102781.91;10194208;28;20045;-67
2023/04/04 12:53:23;;;;;;;5.95;5.43;;;;;;;14.19;27.03;102778.53;10213088;28;20053;-67
2023/04/04 12:58:29;;;;;;;5.93;5.43;;;;;;;13.16;32.51;102771.19;10224235;28;20045;-68
2023/04/04 13:03:36;;;;;;;6.55;5.57;;;;;;;13.65;35.09;102770.28;10221475;28;20145;-68
2023/04/04 13:08:36;;;;;;;5.68;5.20;;;;;;;12.30;30.90;102766.94;10217545;28;20057;-68
2023/04/04 13:13:38;;;;;;;6.22;5.40;;;;;;;11.56;33.31;102770.06;10215034;28;20096;-68
2023/04/04 13:18:42;;;;;;;6.53;5.68;;;;;;;11.52;35.15;102758.00;10227635;28;20056;-67
2023/04/04 13:23:40;;;;;;;6.30;5.70;;;;;;;12.04;34.56;102747.00;10217753;28;20531;-67
2023/04/04 13:28:37;;;;;;;6.13;5.53;;;;;;;14.14;30.78;102737.34;10208565;28;20783;-68
2023/04/04 13:33:39;;;;;;;7.50;5.75;;;;;;;13.56;29.78;102732.72;10227775;28;20049;-68
2023/04/04 13:38:40;;;;;;;5.95;5.40;;;;;;;12.18;32.51;102728.84;10215489;28;20666;-68
2023/04/04 13:43:39;;;;;;;8.23;5.20;;;;;;;13.14;33.20;102729.44;10223199;28;20059;-68
2023/04/04 13:48:36;;;;;;;6.57;5.20;;;;;;;14.47;36.59;102711.59;10214587;28;20049;-68
2023/04/04 13:53:35;;;;;;;6.22;5.65;;;;;;;13.51;30.85;102706.09;10223745;28;20152;-68
2023/04/04 13:58:35;;;;;;;6.40;5.40;;;;;;;12.68;31.16;102696.81;10213546;28;20100;-68
2023/04/04 14:03:45;;;;;;;6.20;5.60;;;;;;;12.29;35.22;102697.56;10224365;28;20049;-68
2023/04/04 14:08:50;;;;;;;6.75;5.45;;;;;;;13.44;34.66;102675.38;10219015;28;20041;-68
2023/04/04 14:13:55;;;;;;;7.38;5.70;;;;;;;13.51;31.55;102670.38;10217402;28;20047;-68
2023/04/04 14:18:53;;;;;;;6.88;5.95;;;;;;;15.03;34.06;102665.09;10219736;28;20103;-68
2023/04/04 14:24:05;;;;;;;6.93;5.85;;;;;;;15.50;29.11;102663.16;10211328;28;20041;-68
2023/04/04 14:29:04;;;;;;;6.93;6.07;;;;;;;16.81;34.30;102660.72;10214909;28;20042;-68
2023/04/04 14:34:02;;;;;;;6.82;6.18;;;;;;;15.69;28.52;102655.66;10219071;28;20045;-67
2023/04/04 14:38:59;;;;;;;7.40;6.20;;;;;;;15.71;31.77;102658.94;10221985;28;20084;-67
2023/04/04 14:43:59;;;;;;;7.90;6.72;;;;;;;15.26;31.35;102652.31;10214204;28;20123;-67
2023/04/04 14:48:57;;;;;;;6.85;5.90;;;;;;;16.08;28.53;102648.81;10207693;28;20056;-67
2023/04/04 14:54:03;;;;;;;7.13;5.63;;;;;;;15.03;29.16;102637.53;10210457;28;20042;-68
2023/04/04 14:59:15;;;;;;;6.90;5.55;;;;;;;14.66;30.17;102628.22;10224853;28;20053;-69
2023/04/04 15:04:15;;;;;;;6.20;5.65;;;;;;;14.67;31.63;102630.69;10221622;28;20519;-69
2023/04/04 15:09:20;;;;;;;7.53;5.25;;;;;;;13.41;31.12;102631.97;10204840;28;20229;-67
2023/04/04 15:14:20;;;;;;;6.15;5.65;;;;;;;12.75;32.53;102625.94;10219014;28;20044;-67
2023/04/04 15:19:22;;;;;;;7.32;5.95;;;;;;;13.52;34.67;102633.53;10209997;28;20053;-67
2023/04/04 15:24:39;;;;;;;6.80;6.10;;;;;;;13.01;33.91;102623.81;10209122;28;20132;-66
2023/04/04 15:29:40;;;;;;;6.45;5.90;;;;;;;12.64;33.67;102622.44;10214189;28;20111;-67
2023/04/04 15:34:43;;;;;;;7.40;5.80;;;;;;;12.62;36.57;102615.59;10211430;28;20060;-67
2023/04/04 15:39:44;;;;;;;;;;;;;;;12.16;34.32;102613.16;10212880;28;20049;-67
2023/04/04 15:45:11;;;;;;;6.65;6.10;;;;;;;12.02;33.92;102601.16;10217945;28;19936;-67
2023/04/04 15:50:10;;;;;;;6.63;6.03;;;;;;;11.79;33.51;102597.97;10202605;28;20141;-67
2023/04/04 15:55:20;;;;;;;6.50;5.85;;;;;;;11.55;35.71;102604.03;10210527;28;20566;-68
2023/04/04 16:00:26;;;;;;;6.25;5.75;;;;;;;11.43;38.93;102606.28;10213341;28;20049;-68
2023/04/04 16:05:27;;;;;;;6.75;6.07;;;;;;;11.20;39.62;102604.13;10201286;28;20407;-67
2023/04/04 16:10:26;;;;;;;6.82;6.03;;;;;;;10.39;39.94;102603.81;10212247;28;20133;-66
2023/04/04 16:15:29;;;;;;;6.57;5.97;;;;;;;9.63;39.56;102604.31;10214258;28;20050;-66
2023/04/04 16:20:29;;;;;;;6.40;5.80;;;;;;;9.46;43.03;102608.06;10209933;28;20045;-66
2023/04/04 16:25:32;;;;;;;6.22;5.70;;;;;;;9.09;47.02;102601.81;10233613;28;20041;-66
2023/04/04 16:30:34;;;;;;;7.70;5.53;;;;;;;9.03;51.45;102599.06;10194413;28;20112;-67
2023/04/04 16:35:39;;;;;;;5.93;5.30;;;;;;;9.43;57.32;102594.94;10230344;28;20100;-67
2023/04/04 16:40:35;;;;;;;6.10;5.50;;;;;;;10.34;51.05;102595.59;10218201;28;20065;-67
2023/04/04 16:45:41;;;;;;;6.18;5.40;;;;;;;11.26;40.01;102590.16;10221413;28;20349;-67
2023/04/04 16:50:55;;;;;;;5.97;5.28;;;;;;;10.77;40.33;102588.00;10229169;28;20635;-67
2023/04/04 16:55:52;;;;;;;6.18;5.57;;;;;;;11.21;40.98;102586.59;10221495;28;20091;-67
2023/04/04 17:01:21;;;;;;;8.65;5.93;;;;;;;10.62;39.42;102586.06;10222809;28;20045;-68
2023/04/04 17:06:21;;;;;;;6.68;6.00;;;;;;;11.18;42.71;102587.16;10215982;28;20041;-67
2023/04/04 17:11:23;;;;;;;7.68;6.00;;;;;;;10.51;49.07;102573.47;10221279;28;20557;-67
2023/04/04 17:16:31;;;;;;;5.78;5.25;;;;;;;9.19;45.77;102575.44;10214033;28;20050;-67
2023/04/04 17:21:45;;;;;;;7.80;5.68;;;;;;;8.86;55.27;102576.53;10207862;28;20045;-67
2023/04/04 17:26:46;;;;;;;7.20;6.45;;;;;;;8.40;63.69;102581.56;10216383;28;20067;-67
2023/04/04 17:31:47;;;;;;;13.13;8.25;;;;;;;7.99;70.26;102578.41;10216910;28;20176;-67
2023/04/04 17:36:55;;;;;;;17.48;8.48;;;;;;;7.64;80.18;102576.06;10201892;28;20053;-67
2023/04/04 17:42:01;;;;;;;9.27;6.30;;;;;;;7.41;78.31;102585.28;10212974;28;20048;-67
2023/04/04 17:47:00;;;;;;;7.57;6.20;;;;;;;7.04;94.47;102588.53;10217362;28;20058;-67
2023/04/04 17:51:58;;;;;;;6.43;5.82;;;;;;;6.76;88.80;102576.66;10208776;28;20072;-67
2023/04/04 17:56:56;;;;;;;7.20;5.88;;;;;;;6.51;94.66;102586.03;10202562;28;20045;-66
2023/04/04 18:01:52;;;;;;;8.88;5.97;;;;;;;6.29;100.00;102579.66;10230369;28;20041;-67
2023/04/04 18:06:50;;;;;;;7.05;5.80;;;;;;;6.14;98.77;102577.47;10226954;28;20079;-65
2023/04/04 18:11:46;;;;;;;7.90;6.65;;;;;;;5.95;100.00;102582.25;10220273;28;20060;-66
2023/04/04 18:16:49;;;;;;;9.10;6.85;;;;;;;5.68;100.00;102577.31;10229585;28;20042;-66
2023/04/04 18:21:52;;;;;;;9.40;6.05;;;;;;;5.49;100.00;102573.94;10229263;28;20038;-67
2023/04/04 18:26:51;;;;;;;6.88;6.18;;;;;;;5.39;100.00;102581.88;10224214;28;20056;-67
2023/04/04 18:31:48;;;;;;;7.32;6.63;;;;;;;5.35;100.00;102585.28;10225848;28;20057;-67
2023/04/04 18:36:45;;;;;;;6.97;6.32;;;;;;;5.25;100.00;102580.47;10225148;28;20679;-65
2023/04/04 18:41:45;;;;;;;7.05;6.13;;;;;;;5.10;100.00;102591.75;10225847;28;20048;-66
2023/04/04 18:46:41;;;;;;;9.23;6.28;;;;;;;5.02;100.00;102584.00;10240016;28;20048;-67
2023/04/04 18:51:38;;;;;;;6.70;6.00;;;;;;;4.85;100.00;102590.09;10220751;28;20042;-67
2023/04/04 18:56:34;;;;;;;8.40;6.88;;;;;;;4.75;100.00;102589.00;10223720;28;20099;-66
2023/04/04 19:01:34;;;;;;;6.80;6.10;;;;;;;4.66;100.00;102595.81;10221318;28;20045;-67
2023/04/04 19:06:32;;;;;;;8.68;6.50;;;;;;;4.52;100.00;102595.19;10223156;28;20141;-66
2023/04/04 19:11:30;;;;;;;8.98;7.35;;;;;;;4.50;100.00;102591.88;10229474;28;20072;-67
2023/04/04 19:16:27;;;;;;;11.73;7.60;;;;;;;4.35;100.00;102595.84;10220922;28;20046;-66
2023/04/04 19:21:25;;;;;;;11.30;7.72;;;;;;;4.26;100.00;102596.41;10224488;28;20038;-66
2023/04/04 19:26:21;;;;;;;10.10;7.28;;;;;;;4.15;100.00;102596.13;10222541;28;20108;-66
2023/04/04 19:31:23;;;;;;;13.32;7.85;;;;;;;4.13;100.00;102591.97;10198637;28;20590;-66
2023/04/04 19:36:20;;;;;;;11.03;8.23;;;;;;;4.02;100.00;102600.91;10203433;28;20106;-66
2023/04/04 19:41:16;;;;;;;9.32;7.88;;;;;;;3.91;100.00;102589.75;10216165;28;20056;-69
2023/04/04 19:46:15;;;;;;;9.15;6.95;;;;;;;3.89;100.00;102589.16;10218745;28;20048;-68
2023/04/04 19:51:35;;;;;;;8.65;6.80;;;;;;;3.78;100.00;102585.34;10233268;28;20050;-67
2023/04/04 19:56:32;;;;;;;11.10;7.43;;;;;;;3.66;100.00;102575.50;10204559;28;20152;-71
2023/04/04 20:01:31;;;;;;;8.77;6.93;;;;;;;3.52;100.00;102580.22;10214177;28;20092;-70
2023/04/04 20:06:30;;;;;;;12.52;7.70;;;;;;;3.45;100.00;102580.31;10211123;28;20038;-73
2023/04/04 20:11:29;;;;;;;14.40;7.05;;;;;;;3.40;100.00;102582.84;10218911;28;20049;-74
2023/04/04 20:16:26;;;;;;;10.50;7.13;;;;;;;3.34;100.00;102578.31;10216401;28;20445;-74
2023/04/04 20:21:30;;;;;;;11.48;7.28;;;;;;;3.24;100.00;102580.72;10214716;28;20095;-74
2023/04/04 20:26:58;;;;;;;11.13;6.95;;;;;;;3.15;100.00;102578.31;10217369;28;20100;-71
2023/04/04 20:31:56;;;;;;;13.05;7.50;;;;;;;3.02;100.00;102591.97;10216954;28;20664;-71
2023/04/04 20:36:53;;;;;;;9.30;7.55;;;;;;;2.91;100.00;102596.19;10214812;28;20048;-70
2023/04/04 20:41:49;;;;;;;9.20;7.57;;;;;;;2.84;100.00;102600.00;10222278;28;20060;-70
2023/04/04 20:46:47;;;;;;;9.68;7.45;;;;;;;2.75;100.00;102602.13;10218600;28;20047;-74
2023/04/04 20:51:43;;;;;;;11.90;8.38;;;;;;;2.69;100.00;102594.91;10227265;28;20037;-74
2023/04/04 20:56:40;;;;;;;11.25;7.93;;;;;;;2.64;100.00;102600.97;10211963;28;20132;-74
2023/04/04 21:01:36;;;;;;;16.65;8.75;;;;;;;2.58;100.00;102596.44;10227011;28;20084;-74
2023/04/04 21:06:33;;;;;;;11.38;7.97;;;;;;;2.55;100.00;102588.75;10225859;28;20044;-74
2023/04/04 21:11:32;;;;;;;9.00;7.38;;;;;;;2.45;100.00;102591.13;10212379;28;20065;-74
2023/04/04 21:16:28;;;;;;;13.07;8.20;;;;;;;2.37;100.00;102588.66;10209302;28;20129;-74
2023/04/04 21:21:26;;;;;;;10.77;7.95;;;;;;;2.34;100.00;102589.94;10218099;28;20053;-74
2023/04/04 21:26:29;;;;;;;11.35;7.72;;;;;;;2.21;100.00;102584.63;10225551;28;20056;-74
2023/04/04 21:31:33;;;;;;;14.98;8.00;;;;;;;2.20;100.00;102583.78;10223304;28;20060;-76
2023/04/04 21:36:30;;;;;;;12.13;8.05;;;;;;;2.14;100.00;102584.66;10225746;28;20068;-70
2023/04/04 21:41:31;;;;;;;8.82;7.30;;;;;;;2.04;100.00;102568.94;10220399;28;20081;-70
2023/04/04 21:46:31;;;;;;;11.85;7.90;;;;;;;1.96;100.00;102571.06;10234262;28;20509;-73
2023/04/04 21:51:27;;;;;;;13.02;7.63;;;;;;;1.92;100.00;102569.81;10220187;28;20545;-73
2023/04/04 21:56:26;;;;;;;12.13;7.57;;;;;;;1.82;100.00;102565.69;10233969;28;20064;-73
2023/04/04 22:01:23;;;;;;;13.60;8.05;;;;;;;1.75;100.00;102562.22;10226923;28;20526;-71
2023/04/04 22:06:23;;;;;;;9.20;7.70;;;;;;;1.73;100.00;102572.38;10230178;28;20056;-74
2023/04/04 22:11:19;;;;;;;9.55;6.75;;;;;;;1.63;100.00;102555.84;10218047;28;20549;-71
2023/04/04 22:16:18;;;;;;;18.02;7.95;;;;;;;1.55;100.00;102558.75;10227240;28;20045;-73
2023/04/04 22:21:14;;;;;;;9.75;6.82;;;;;;;1.43;100.00;102553.19;10223695;28;20048;-76
2023/04/04 22:26:13;;;;;;;11.80;6.35;;;;;;;1.39;100.00;102555.50;10231155;28;20072;-75
2023/04/04 22:31:09;;;;;;;9.77;6.70;;;;;;;1.39;100.00;102549.25;10225290;28;20092;-76
2023/04/04 22:36:06;;;;;;;17.55;7.13;;;;;;;1.37;100.00;102546.78;10220900;28;20430;-75
2023/04/04 22:41:03;;;;;;;10.40;6.80;;;;;;;1.24;100.00;102544.13;10234315;28;20053;-75
2023/04/04 22:46:00;;;;;;;9.80;6.63;;;;;;;1.22;100.00;102540.78;10211243;28;20042;-75
2023/04/04 22:50:57;;;;;;;12.38;6.93;;;;;;;1.11;100.00;102541.44;10219115;28;20411;-76
2023/04/04 22:55:58;;;;;;;11.65;7.78;;;;;;;1.03;100.00;102540.63;10227169;28;20041;-77
2023/04/04 23:00:55;;;;;;;13.93;7.47;;;;;;;1.01;100.00;102534.59;10218351;28;20045;-76
2023/04/04 23:05:51;;;;;;;16.92;9.20;;;;;;;0.96;100.00;102534.41;10228407;28;20655;-76
2023/04/04 23:10:48;;;;;;;17.35;8.25;;;;;;;0.92;100.00;102538.56;10223126;28;20072;-76